sensor_id;sensor_type;location;lat;lon;timestamp;P1;durP1;ratioP1;P2;durP2;ratioP2
11189;SDS011;5651;50.926;4.718;2023-03-01T00:01:08;28.23;;;18.85;;
11189;SDS011;5651;50.926;4.718;2023-03-01T00:03:36;33.65;;;19.90;;
11189;SDS011;5651;50.926;4.718;2023-03-01T00:06:02;34.00;;;19.08;;
11189;SDS011;5651;50.926;4.718;2023-03-01T00:08:29;26.55;;;17.88;;
11189;SDS011;5651;50.926;4.718;2023-03-01T00:13:27;25.45;;;17.42;;
11189;SDS011;5651;50.926;4.718;2023-03-01T00:15:53;29.73;;;17.35;;
11189;SDS011;5651;50.926;4.718;2023-03-01T00:18:19;30.45;;;18.27;;
11189;SDS011;5651;50.926;4.718;2023-03-01T00:20:51;34.38;;;19.13;;
11189;SDS011;5651;50.926;4.718;2023-03-01T00:23:17;31.13;;;18.65;;
11189;SDS011;5651;50.926;4.718;2023-03-01T00:25:43;30.58;;;19.55;;
11189;SDS011;5651;50.926;4.718;2023-03-01T00:28:09;28.85;;;17.83;;
11189;SDS011;5651;50.926;4.718;2023-03-01T00:30:35;32.28;;;19.48;;
11189;SDS011;5651;50.926;4.718;2023-03-01T00:33:00;30.90;;;19.13;;
11189;SDS011;5651;50.926;4.718;2023-03-01T00:35:27;34.28;;;20.65;;
11189;SDS011;5651;50.926;4.718;2023-03-01T00:37:53;35.15;;;19.58;;
11189;SDS011;5651;50.926;4.718;2023-03-01T00:40:23;30.48;;;18.63;;
11189;SDS011;5651;50.926;4.718;2023-03-01T00:42:49;35.10;;;20.88;;
11189;SDS011;5651;50.926;4.718;2023-03-01T00:45:15;31.75;;;19.13;;
11189;SDS011;5651;50.926;4.718;2023-03-01T00:47:41;32.92;;;19.90;;
11189;SDS011;5651;50.926;4.718;2023-03-01T00:50:08;40.28;;;20.65;;
11189;SDS011;5651;50.926;4.718;2023-03-01T00:52:34;36.20;;;20.75;;
11189;SDS011;5651;50.926;4.718;2023-03-01T00:55:00;42.75;;;24.48;;
11189;SDS011;5651;50.926;4.718;2023-03-01T00:57:25;49.35;;;26.25;;
11189;SDS011;5651;50.926;4.718;2023-03-01T00:59:51;41.67;;;24.85;;
11189;SDS011;5651;50.926;4.718;2023-03-01T01:02:18;49.22;;;28.48;;
11189;SDS011;5651;50.926;4.718;2023-03-01T01:04:44;48.00;;;26.00;;
11189;SDS011;5651;50.926;4.718;2023-03-01T01:07:11;42.85;;;24.85;;
11189;SDS011;5651;50.926;4.718;2023-03-01T01:09:36;41.72;;;24.35;;
11189;SDS011;5651;50.926;4.718;2023-03-01T01:12:03;48.08;;;25.58;;
11189;SDS011;5651;50.926;4.718;2023-03-01T01:14:29;49.28;;;27.08;;
11189;SDS011;5651;50.926;4.718;2023-03-01T01:16:54;41.67;;;24.67;;
11189;SDS011;5651;50.926;4.718;2023-03-01T01:19:21;44.78;;;25.10;;
11189;SDS011;5651;50.926;4.718;2023-03-01T01:21:47;43.40;;;23.60;;
11189;SDS011;5651;50.926;4.718;2023-03-01T01:24:14;39.47;;;22.70;;
11189;SDS011;5651;50.926;4.718;2023-03-01T01:26:40;40.85;;;23.45;;
11189;SDS011;5651;50.926;4.718;2023-03-01T01:29:06;39.58;;;23.20;;
11189;SDS011;5651;50.926;4.718;2023-03-01T01:31:33;39.08;;;23.13;;
11189;SDS011;5651;50.926;4.718;2023-03-01T01:34:00;43.10;;;24.70;;
11189;SDS011;5651;50.926;4.718;2023-03-01T01:36:27;43.40;;;23.38;;
11189;SDS011;5651;50.926;4.718;2023-03-01T01:38:53;38.60;;;22.63;;
11189;SDS011;5651;50.926;4.718;2023-03-01T01:41:19;38.45;;;22.27;;
11189;SDS011;5651;50.926;4.718;2023-03-01T01:43:47;40.83;;;23.90;;
11189;SDS011;5651;50.926;4.718;2023-03-01T01:46:33;38.78;;;22.30;;
11189;SDS011;5651;50.926;4.718;2023-03-01T01:57:07;50.50;;;22.27;;
11189;SDS011;5651;50.926;4.718;2023-03-01T01:59:38;35.65;;;21.23;;
11189;SDS011;5651;50.926;4.718;2023-03-01T02:02:08;34.90;;;20.52;;
11189;SDS011;5651;50.926;4.718;2023-03-01T02:04:34;36.80;;;20.52;;
11189;SDS011;5651;50.926;4.718;2023-03-01T02:07:05;32.28;;;19.48;;
11189;SDS011;5651;50.926;4.718;2023-03-01T02:09:38;33.95;;;21.33;;
11189;SDS011;5651;50.926;4.718;2023-03-01T02:12:04;32.03;;;19.77;;
11189;SDS011;5651;50.926;4.718;2023-03-01T02:14:30;31.95;;;18.83;;
11189;SDS011;5651;50.926;4.718;2023-03-01T02:16:56;33.05;;;19.58;;
11189;SDS011;5651;50.926;4.718;2023-03-01T02:19:28;31.67;;;19.23;;
11189;SDS011;5651;50.926;4.718;2023-03-01T02:22:10;33.28;;;19.85;;
11189;SDS011;5651;50.926;4.718;2023-03-01T02:24:50;32.13;;;18.95;;
11189;SDS011;5651;50.926;4.718;2023-03-01T02:30:24;30.75;;;18.40;;
11189;SDS011;5651;50.926;4.718;2023-03-01T02:32:52;33.33;;;18.27;;
11189;SDS011;5651;50.926;4.718;2023-03-01T02:35:19;31.52;;;19.40;;
11189;SDS011;5651;50.926;4.718;2023-03-01T02:37:46;33.25;;;18.75;;
11189;SDS011;5651;50.926;4.718;2023-03-01T02:40:14;34.53;;;20.75;;
11189;SDS011;5651;50.926;4.718;2023-03-01T02:42:47;29.13;;;18.30;;
11189;SDS011;5651;50.926;4.718;2023-03-01T02:45:16;32.25;;;19.25;;
11189;SDS011;5651;50.926;4.718;2023-03-01T02:47:42;35.45;;;19.95;;
11189;SDS011;5651;50.926;4.718;2023-03-01T02:50:17;32.08;;;19.25;;
11189;SDS011;5651;50.926;4.718;2023-03-01T02:52:56;31.27;;;18.77;;
11189;SDS011;5651;50.926;4.718;2023-03-01T02:55:27;32.88;;;18.67;;
11189;SDS011;5651;50.926;4.718;2023-03-01T02:57:53;36.83;;;21.45;;
11189;SDS011;5651;50.926;4.718;2023-03-01T03:00:21;35.80;;;20.10;;
11189;SDS011;5651;50.926;4.718;2023-03-01T03:02:50;42.30;;;20.27;;
11189;SDS011;5651;50.926;4.718;2023-03-01T03:05:19;36.53;;;19.05;;
11189;SDS011;5651;50.926;4.718;2023-03-01T03:07:47;34.30;;;19.27;;
11189;SDS011;5651;50.926;4.718;2023-03-01T03:10:14;34.72;;;20.15;;
11189;SDS011;5651;50.926;4.718;2023-03-01T03:12:48;34.65;;;19.17;;
11189;SDS011;5651;50.926;4.718;2023-03-01T03:15:18;38.03;;;22.00;;
11189;SDS011;5651;50.926;4.718;2023-03-01T03:17:46;33.92;;;20.02;;
11189;SDS011;5651;50.926;4.718;2023-03-01T03:20:13;36.33;;;19.77;;
11189;SDS011;5651;50.926;4.718;2023-03-01T03:22:47;36.55;;;20.90;;
11189;SDS011;5651;50.926;4.718;2023-03-01T03:25:15;37.30;;;20.05;;
11189;SDS011;5651;50.926;4.718;2023-03-01T03:27:43;35.30;;;22.48;;
11189;SDS011;5651;50.926;4.718;2023-03-01T03:30:10;37.15;;;21.35;;
11189;SDS011;5651;50.926;4.718;2023-03-01T03:32:39;35.63;;;20.27;;
11189;SDS011;5651;50.926;4.718;2023-03-01T03:35:07;35.47;;;20.48;;
11189;SDS011;5651;50.926;4.718;2023-03-01T03:37:43;37.45;;;20.33;;
11189;SDS011;5651;50.926;4.718;2023-03-01T03:40:29;36.47;;;20.40;;
11189;SDS011;5651;50.926;4.718;2023-03-01T03:43:00;29.88;;;16.85;;
11189;SDS011;5651;50.926;4.718;2023-03-01T03:45:27;38.58;;;21.67;;
11189;SDS011;5651;50.926;4.718;2023-03-01T03:47:52;36.65;;;19.73;;
11189;SDS011;5651;50.926;4.718;2023-03-01T03:50:18;34.67;;;20.30;;
11189;SDS011;5651;50.926;4.718;2023-03-01T03:52:44;34.03;;;19.95;;
11189;SDS011;5651;50.926;4.718;2023-03-01T03:55:10;37.95;;;20.70;;
11189;SDS011;5651;50.926;4.718;2023-03-01T03:57:37;38.60;;;20.83;;
11189;SDS011;5651;50.926;4.718;2023-03-01T04:00:05;33.83;;;18.67;;
11189;SDS011;5651;50.926;4.718;2023-03-01T04:02:38;34.75;;;19.90;;
11189;SDS011;5651;50.926;4.718;2023-03-01T04:05:06;37.70;;;20.00;;
11189;SDS011;5651;50.926;4.718;2023-03-01T04:07:33;32.40;;;19.55;;
11189;SDS011;5651;50.926;4.718;2023-03-01T04:10:00;35.42;;;20.10;;
11189;SDS011;5651;50.926;4.718;2023-03-01T04:12:27;33.28;;;19.67;;
11189;SDS011;5651;50.926;4.718;2023-03-01T04:14:53;36.65;;;19.38;;
11189;SDS011;5651;50.926;4.718;2023-03-01T04:17:19;34.63;;;20.17;;
11189;SDS011;5651;50.926;4.718;2023-03-01T04:19:45;35.85;;;19.58;;
11189;SDS011;5651;50.926;4.718;2023-03-01T04:22:14;33.15;;;19.13;;
11189;SDS011;5651;50.926;4.718;2023-03-01T04:24:43;35.75;;;19.85;;
11189;SDS011;5651;50.926;4.718;2023-03-01T04:27:10;31.52;;;18.80;;
11189;SDS011;5651;50.926;4.718;2023-03-01T04:29:36;30.90;;;18.95;;
11189;SDS011;5651;50.926;4.718;2023-03-01T04:32:02;32.47;;;18.77;;
11189;SDS011;5651;50.926;4.718;2023-03-01T04:34:29;34.70;;;19.73;;
11189;SDS011;5651;50.926;4.718;2023-03-01T04:36:55;34.58;;;19.17;;
11189;SDS011;5651;50.926;4.718;2023-03-01T04:39:21;31.40;;;17.65;;
11189;SDS011;5651;50.926;4.718;2023-03-01T04:41:47;33.47;;;18.67;;
11189;SDS011;5651;50.926;4.718;2023-03-01T04:44:12;34.97;;;19.42;;
11189;SDS011;5651;50.926;4.718;2023-03-01T04:46:38;35.22;;;18.90;;
11189;SDS011;5651;50.926;4.718;2023-03-01T04:49:04;32.80;;;18.70;;
11189;SDS011;5651;50.926;4.718;2023-03-01T04:51:30;33.97;;;18.95;;
11189;SDS011;5651;50.926;4.718;2023-03-01T04:53:57;34.72;;;18.65;;
11189;SDS011;5651;50.926;4.718;2023-03-01T04:56:23;37.83;;;17.77;;
11189;SDS011;5651;50.926;4.718;2023-03-01T04:58:49;34.72;;;19.20;;
11189;SDS011;5651;50.926;4.718;2023-03-01T05:01:19;32.30;;;18.77;;
11189;SDS011;5651;50.926;4.718;2023-03-01T05:03:51;28.80;;;17.40;;
11189;SDS011;5651;50.926;4.718;2023-03-01T05:06:18;32.53;;;19.33;;
11189;SDS011;5651;50.926;4.718;2023-03-01T05:08:45;33.00;;;19.50;;
11189;SDS011;5651;50.926;4.718;2023-03-01T05:11:10;36.08;;;19.13;;
11189;SDS011;5651;50.926;4.718;2023-03-01T05:13:37;30.95;;;17.67;;
11189;SDS011;5651;50.926;4.718;2023-03-01T05:16:04;32.53;;;19.05;;
11189;SDS011;5651;50.926;4.718;2023-03-01T05:18:32;32.88;;;19.30;;
11189;SDS011;5651;50.926;4.718;2023-03-01T05:21:03;31.48;;;18.02;;
11189;SDS011;5651;50.926;4.718;2023-03-01T05:23:31;29.23;;;16.38;;
11189;SDS011;5651;50.926;4.718;2023-03-01T05:25:58;32.28;;;17.58;;
11189;SDS011;5651;50.926;4.718;2023-03-01T05:28:25;33.83;;;18.50;;
11189;SDS011;5651;50.926;4.718;2023-03-01T05:30:51;33.30;;;19.13;;
11189;SDS011;5651;50.926;4.718;2023-03-01T05:33:17;36.83;;;19.98;;
11189;SDS011;5651;50.926;4.718;2023-03-01T05:35:44;34.30;;;17.08;;
11189;SDS011;5651;50.926;4.718;2023-03-01T05:38:13;28.08;;;17.20;;
11189;SDS011;5651;50.926;4.718;2023-03-01T05:40:43;38.15;;;18.95;;
11189;SDS011;5651;50.926;4.718;2023-03-01T05:43:11;35.33;;;19.08;;
11189;SDS011;5651;50.926;4.718;2023-03-01T05:45:37;33.17;;;17.70;;
11189;SDS011;5651;50.926;4.718;2023-03-01T05:48:04;33.50;;;17.00;;
11189;SDS011;5651;50.926;4.718;2023-03-01T05:50:38;30.08;;;16.95;;
11189;SDS011;5651;50.926;4.718;2023-03-01T05:53:18;30.55;;;16.73;;
11189;SDS011;5651;50.926;4.718;2023-03-01T05:55:46;31.77;;;16.10;;
11189;SDS011;5651;50.926;4.718;2023-03-01T05:58:13;33.08;;;17.52;;
11189;SDS011;5651;50.926;4.718;2023-03-01T06:00:41;36.17;;;16.95;;
11189;SDS011;5651;50.926;4.718;2023-03-01T06:03:09;33.33;;;17.80;;
11189;SDS011;5651;50.926;4.718;2023-03-01T06:05:35;30.13;;;17.48;;
11189;SDS011;5651;50.926;4.718;2023-03-01T06:08:02;33.13;;;18.33;;
11189;SDS011;5651;50.926;4.718;2023-03-01T06:10:28;31.45;;;16.30;;
11189;SDS011;5651;50.926;4.718;2023-03-01T06:12:54;27.55;;;16.90;;
11189;SDS011;5651;50.926;4.718;2023-03-01T06:15:20;32.50;;;17.42;;
11189;SDS011;5651;50.926;4.718;2023-03-01T06:17:47;30.38;;;16.50;;
11189;SDS011;5651;50.926;4.718;2023-03-01T06:20:23;32.83;;;16.70;;
11189;SDS011;5651;50.926;4.718;2023-03-01T06:22:51;33.97;;;18.17;;
11189;SDS011;5651;50.926;4.718;2023-03-01T06:25:21;33.22;;;16.85;;
11189;SDS011;5651;50.926;4.718;2023-03-01T06:27:48;32.03;;;17.55;;
11189;SDS011;5651;50.926;4.718;2023-03-01T06:30:15;33.25;;;17.40;;
11189;SDS011;5651;50.926;4.718;2023-03-01T06:32:43;33.95;;;17.60;;
11189;SDS011;5651;50.926;4.718;2023-03-01T06:35:10;30.27;;;16.25;;
11189;SDS011;5651;50.926;4.718;2023-03-01T06:37:37;28.92;;;16.60;;
11189;SDS011;5651;50.926;4.718;2023-03-01T06:40:04;30.85;;;17.63;;
11189;SDS011;5651;50.926;4.718;2023-03-01T06:42:34;26.90;;;16.08;;
11189;SDS011;5651;50.926;4.718;2023-03-01T06:45:00;31.92;;;17.17;;
11189;SDS011;5651;50.926;4.718;2023-03-01T06:47:26;37.28;;;17.58;;
11189;SDS011;5651;50.926;4.718;2023-03-01T06:49:52;39.30;;;18.70;;
11189;SDS011;5651;50.926;4.718;2023-03-01T06:52:17;44.42;;;21.27;;
11189;SDS011;5651;50.926;4.718;2023-03-01T06:54:43;35.00;;;19.08;;
11189;SDS011;5651;50.926;4.718;2023-03-01T06:57:09;31.40;;;18.25;;
11189;SDS011;5651;50.926;4.718;2023-03-01T06:59:34;40.65;;;19.40;;
11189;SDS011;5651;50.926;4.718;2023-03-01T07:02:00;32.00;;;16.58;;
11189;SDS011;5651;50.926;4.718;2023-03-01T07:04:26;35.80;;;18.38;;
11189;SDS011;5651;50.926;4.718;2023-03-01T07:06:53;33.63;;;19.23;;
11189;SDS011;5651;50.926;4.718;2023-03-01T07:09:21;27.83;;;16.75;;
11189;SDS011;5651;50.926;4.718;2023-03-01T07:11:48;37.97;;;17.35;;
11189;SDS011;5651;50.926;4.718;2023-03-01T07:14:14;34.28;;;19.70;;
11189;SDS011;5651;50.926;4.718;2023-03-01T07:16:40;32.88;;;18.42;;
11189;SDS011;5651;50.926;4.718;2023-03-01T07:19:06;32.28;;;18.10;;
11189;SDS011;5651;50.926;4.718;2023-03-01T07:21:31;35.67;;;18.67;;
11189;SDS011;5651;50.926;4.718;2023-03-01T07:23:57;35.90;;;18.88;;
11189;SDS011;5651;50.926;4.718;2023-03-01T07:26:23;37.40;;;19.45;;
11189;SDS011;5651;50.926;4.718;2023-03-01T07:28:48;36.85;;;19.58;;
11189;SDS011;5651;50.926;4.718;2023-03-01T07:31:14;37.45;;;19.23;;
11189;SDS011;5651;50.926;4.718;2023-03-01T07:33:40;40.22;;;20.42;;
11189;SDS011;5651;50.926;4.718;2023-03-01T07:36:06;33.50;;;18.52;;
11189;SDS011;5651;50.926;4.718;2023-03-01T07:38:32;36.05;;;20.35;;
11189;SDS011;5651;50.926;4.718;2023-03-01T07:40:59;31.25;;;18.27;;
11189;SDS011;5651;50.926;4.718;2023-03-01T07:43:26;36.28;;;19.40;;
11189;SDS011;5651;50.926;4.718;2023-03-01T07:45:53;36.88;;;20.38;;
11189;SDS011;5651;50.926;4.718;2023-03-01T07:48:18;35.65;;;19.20;;
11189;SDS011;5651;50.926;4.718;2023-03-01T07:50:44;35.47;;;20.08;;
11189;SDS011;5651;50.926;4.718;2023-03-01T07:53:10;38.35;;;21.70;;
11189;SDS011;5651;50.926;4.718;2023-03-01T07:55:36;36.83;;;20.23;;
11189;SDS011;5651;50.926;4.718;2023-03-01T07:58:02;39.13;;;21.15;;
11189;SDS011;5651;50.926;4.718;2023-03-01T08:00:28;38.63;;;21.70;;
11189;SDS011;5651;50.926;4.718;2023-03-01T08:02:53;40.05;;;21.73;;
11189;SDS011;5651;50.926;4.718;2023-03-01T08:05:19;38.47;;;21.00;;
11189;SDS011;5651;50.926;4.718;2023-03-01T08:07:47;38.10;;;21.73;;
11189;SDS011;5651;50.926;4.718;2023-03-01T08:10:13;39.40;;;21.30;;
11189;SDS011;5651;50.926;4.718;2023-03-01T08:12:38;37.55;;;20.90;;
11189;SDS011;5651;50.926;4.718;2023-03-01T08:15:04;33.83;;;20.33;;
11189;SDS011;5651;50.926;4.718;2023-03-01T08:17:31;34.33;;;19.63;;
11189;SDS011;5651;50.926;4.718;2023-03-01T08:19:56;31.13;;;19.17;;
11189;SDS011;5651;50.926;4.718;2023-03-01T08:22:22;29.85;;;18.65;;
11189;SDS011;5651;50.926;4.718;2023-03-01T08:24:48;29.60;;;17.90;;
11189;SDS011;5651;50.926;4.718;2023-03-01T08:27:14;37.55;;;17.85;;
11189;SDS011;5651;50.926;4.718;2023-03-01T08:29:41;29.13;;;17.00;;
11189;SDS011;5651;50.926;4.718;2023-03-01T08:32:06;31.40;;;18.63;;
11189;SDS011;5651;50.926;4.718;2023-03-01T08:34:32;33.92;;;16.85;;
11189;SDS011;5651;50.926;4.718;2023-03-01T08:37:00;28.35;;;17.58;;
11189;SDS011;5651;50.926;4.718;2023-03-01T08:39:27;31.67;;;18.10;;
11189;SDS011;5651;50.926;4.718;2023-03-01T08:41:55;28.85;;;16.25;;
11189;SDS011;5651;50.926;4.718;2023-03-01T08:44:20;29.00;;;16.30;;
11189;SDS011;5651;50.926;4.718;2023-03-01T08:46:46;25.20;;;16.50;;
11189;SDS011;5651;50.926;4.718;2023-03-01T08:49:19;28.95;;;16.08;;
11189;SDS011;5651;50.926;4.718;2023-03-01T08:51:45;30.45;;;18.35;;
11189;SDS011;5651;50.926;4.718;2023-03-01T08:54:16;36.00;;;18.23;;
11189;SDS011;5651;50.926;4.718;2023-03-01T08:56:43;28.73;;;16.38;;
11189;SDS011;5651;50.926;4.718;2023-03-01T08:59:13;29.00;;;16.00;;
11189;SDS011;5651;50.926;4.718;2023-03-01T09:01:42;24.05;;;15.55;;
11189;SDS011;5651;50.926;4.718;2023-03-01T09:04:09;25.80;;;16.15;;
11189;SDS011;5651;50.926;4.718;2023-03-01T09:06:35;27.80;;;16.50;;
11189;SDS011;5651;50.926;4.718;2023-03-01T09:09:02;28.13;;;14.70;;
11189;SDS011;5651;50.926;4.718;2023-03-01T09:11:29;26.25;;;14.73;;
11189;SDS011;5651;50.926;4.718;2023-03-01T09:13:55;28.58;;;15.32;;
11189;SDS011;5651;50.926;4.718;2023-03-01T09:16:21;24.92;;;13.65;;
11189;SDS011;5651;50.926;4.718;2023-03-01T09:18:51;24.52;;;15.85;;
11189;SDS011;5651;50.926;4.718;2023-03-01T09:21:20;25.50;;;15.00;;
11189;SDS011;5651;50.926;4.718;2023-03-01T09:23:48;22.60;;;14.85;;
11189;SDS011;5651;50.926;4.718;2023-03-01T09:26:20;24.52;;;15.88;;
11189;SDS011;5651;50.926;4.718;2023-03-01T09:28:48;25.63;;;15.02;;
11189;SDS011;5651;50.926;4.718;2023-03-01T09:31:15;21.30;;;14.18;;
11189;SDS011;5651;50.926;4.718;2023-03-01T09:33:45;21.15;;;14.18;;
11189;SDS011;5651;50.926;4.718;2023-03-01T09:36:15;23.10;;;13.57;;
11189;SDS011;5651;50.926;4.718;2023-03-01T09:38:43;23.23;;;14.15;;
11189;SDS011;5651;50.926;4.718;2023-03-01T09:41:09;22.13;;;14.93;;
11189;SDS011;5651;50.926;4.718;2023-03-01T09:46:43;24.25;;;14.52;;
11189;SDS011;5651;50.926;4.718;2023-03-01T09:49:12;21.45;;;14.27;;
11189;SDS011;5651;50.926;4.718;2023-03-01T09:51:42;25.35;;;16.33;;
11189;SDS011;5651;50.926;4.718;2023-03-01T09:54:14;27.48;;;16.35;;
11189;SDS011;5651;50.926;4.718;2023-03-01T09:56:40;21.50;;;13.68;;
11189;SDS011;5651;50.926;4.718;2023-03-01T09:59:23;24.80;;;14.80;;
11189;SDS011;5651;50.926;4.718;2023-03-01T10:01:59;23.20;;;13.63;;
11189;SDS011;5651;50.926;4.718;2023-03-01T10:09:52;21.83;;;13.60;;
11189;SDS011;5651;50.926;4.718;2023-03-01T10:12:19;25.05;;;13.70;;
11189;SDS011;5651;50.926;4.718;2023-03-01T10:19:49;23.70;;;13.60;;
11189;SDS011;5651;50.926;4.718;2023-03-01T10:22:19;24.60;;;13.18;;
11189;SDS011;5651;50.926;4.718;2023-03-01T10:24:54;23.33;;;14.65;;
11189;SDS011;5651;50.926;4.718;2023-03-01T10:27:23;23.42;;;14.10;;
11189;SDS011;5651;50.926;4.718;2023-03-01T10:30:19;24.75;;;14.00;;
11189;SDS011;5651;50.926;4.718;2023-03-01T10:32:55;21.52;;;14.23;;
11189;SDS011;5651;50.926;4.718;2023-03-01T10:35:24;20.33;;;13.25;;
11189;SDS011;5651;50.926;4.718;2023-03-01T10:40:54;25.65;;;14.05;;
11189;SDS011;5651;50.926;4.718;2023-03-01T10:43:23;21.83;;;14.07;;
11189;SDS011;5651;50.926;4.718;2023-03-01T10:45:50;22.80;;;13.60;;
11189;SDS011;5651;50.926;4.718;2023-03-01T10:48:20;20.67;;;13.25;;
11189;SDS011;5651;50.926;4.718;2023-03-01T10:56:07;18.95;;;12.70;;
11189;SDS011;5651;50.926;4.718;2023-03-01T10:58:36;18.75;;;11.43;;
11189;SDS011;5651;50.926;4.718;2023-03-01T11:01:05;21.90;;;12.57;;
11189;SDS011;5651;50.926;4.718;2023-03-01T11:04:11;22.55;;;13.50;;
11189;SDS011;5651;50.926;4.718;2023-03-01T11:06:37;20.52;;;13.02;;
11189;SDS011;5651;50.926;4.718;2023-03-01T11:09:19;19.40;;;12.07;;
11189;SDS011;5651;50.926;4.718;2023-03-01T11:11:46;21.52;;;12.32;;
11189;SDS011;5651;50.926;4.718;2023-03-01T11:16:48;20.58;;;12.55;;
11189;SDS011;5651;50.926;4.718;2023-03-01T11:19:25;22.13;;;13.25;;
11189;SDS011;5651;50.926;4.718;2023-03-01T11:21:59;19.30;;;12.27;;
11189;SDS011;5651;50.926;4.718;2023-03-01T11:24:42;18.15;;;12.50;;
11189;SDS011;5651;50.926;4.718;2023-03-01T11:29:54;20.27;;;12.90;;
11189;SDS011;5651;50.926;4.718;2023-03-01T11:32:23;19.25;;;11.77;;
11189;SDS011;5651;50.926;4.718;2023-03-01T11:35:08;19.65;;;12.57;;
11189;SDS011;5651;50.926;4.718;2023-03-01T11:40:35;21.25;;;12.45;;
11189;SDS011;5651;50.926;4.718;2023-03-01T11:49:00;16.63;;;11.45;;
11189;SDS011;5651;50.926;4.718;2023-03-01T11:56:50;17.95;;;11.35;;
11189;SDS011;5651;50.926;4.718;2023-03-01T12:08:31;15.80;;;11.00;;
11189;SDS011;5651;50.926;4.718;2023-03-01T12:11:06;15.70;;;11.45;;
11189;SDS011;5651;50.926;4.718;2023-03-01T12:18:58;17.73;;;10.80;;
11189;SDS011;5651;50.926;4.718;2023-03-01T12:22:08;17.55;;;11.35;;
11189;SDS011;5651;50.926;4.718;2023-03-01T12:27:50;17.23;;;11.85;;
11189;SDS011;5651;50.926;4.718;2023-03-01T12:38:50;18.40;;;12.68;;
11189;SDS011;5651;50.926;4.718;2023-03-01T12:44:39;15.63;;;10.57;;
11189;SDS011;5651;50.926;4.718;2023-03-01T12:49:48;16.73;;;11.93;;
11189;SDS011;5651;50.926;4.718;2023-03-01T12:52:51;15.40;;;11.15;;
11189;SDS011;5651;50.926;4.718;2023-03-01T12:55:31;18.85;;;10.55;;
11189;SDS011;5651;50.926;4.718;2023-03-01T13:06:32;17.55;;;10.82;;
11189;SDS011;5651;50.926;4.718;2023-03-01T13:09:17;22.00;;;11.98;;
11189;SDS011;5651;50.926;4.718;2023-03-01T13:11:44;14.65;;;11.10;;
11189;SDS011;5651;50.926;4.718;2023-03-01T13:16:51;15.48;;;11.63;;
11189;SDS011;5651;50.926;4.718;2023-03-01T13:19:19;16.20;;;11.82;;
11189;SDS011;5651;50.926;4.718;2023-03-01T13:21:55;17.00;;;11.85;;
11189;SDS011;5651;50.926;4.718;2023-03-01T13:29:49;16.67;;;11.85;;
11189;SDS011;5651;50.926;4.718;2023-03-01T13:32:30;17.15;;;11.68;;
11189;SDS011;5651;50.926;4.718;2023-03-01T13:35:00;16.45;;;11.70;;
11189;SDS011;5651;50.926;4.718;2023-03-01T13:37:30;24.55;;;12.00;;
11189;SDS011;5651;50.926;4.718;2023-03-01T13:39:58;16.83;;;12.20;;
11189;SDS011;5651;50.926;4.718;2023-03-01T13:42:40;15.18;;;11.68;;
11189;SDS011;5651;50.926;4.718;2023-03-01T13:45:16;17.80;;;12.57;;
11189;SDS011;5651;50.926;4.718;2023-03-01T13:47:45;17.48;;;12.95;;
11189;SDS011;5651;50.926;4.718;2023-03-01T13:50:24;19.45;;;12.88;;
11189;SDS011;5651;50.926;4.718;2023-03-01T13:52:59;17.55;;;12.38;;
11189;SDS011;5651;50.926;4.718;2023-03-01T13:55:30;15.20;;;11.98;;
11189;SDS011;5651;50.926;4.718;2023-03-01T13:58:03;16.48;;;12.27;;
11189;SDS011;5651;50.926;4.718;2023-03-01T14:00:40;17.42;;;12.80;;
11189;SDS011;5651;50.926;4.718;2023-03-01T14:05:43;17.05;;;12.23;;
11189;SDS011;5651;50.926;4.718;2023-03-01T14:08:25;14.43;;;12.00;;
11189;SDS011;5651;50.926;4.718;2023-03-01T14:16:27;16.98;;;12.82;;
11189;SDS011;5651;50.926;4.718;2023-03-01T14:19:17;13.15;;;10.70;;
11189;SDS011;5651;50.926;4.718;2023-03-01T14:22:37;15.77;;;11.50;;
11189;SDS011;5651;50.926;4.718;2023-03-01T14:27:27;15.70;;;11.45;;
11189;SDS011;5651;50.926;4.718;2023-03-01T14:29:59;15.35;;;11.18;;
11189;SDS011;5651;50.926;4.718;2023-03-01T14:32:28;13.88;;;10.77;;
11189;SDS011;5651;50.926;4.718;2023-03-01T14:34:55;15.45;;;11.82;;
11189;SDS011;5651;50.926;4.718;2023-03-01T14:37:30;15.88;;;11.27;;
11189;SDS011;5651;50.926;4.718;2023-03-01T14:39:58;14.50;;;11.40;;
11189;SDS011;5651;50.926;4.718;2023-03-01T14:42:27;14.02;;;10.90;;
11189;SDS011;5651;50.926;4.718;2023-03-01T14:44:56;16.13;;;11.25;;
11189;SDS011;5651;50.926;4.718;2023-03-01T14:47:32;16.20;;;11.93;;
11189;SDS011;5651;50.926;4.718;2023-03-01T14:50:23;14.23;;;10.43;;
11189;SDS011;5651;50.926;4.718;2023-03-01T14:52:52;14.25;;;11.05;;
11189;SDS011;5651;50.926;4.718;2023-03-01T14:55:21;14.10;;;10.77;;
11189;SDS011;5651;50.926;4.718;2023-03-01T14:57:52;13.32;;;10.48;;
11189;SDS011;5651;50.926;4.718;2023-03-01T15:00:28;15.50;;;10.98;;
11189;SDS011;5651;50.926;4.718;2023-03-01T15:02:56;16.48;;;11.52;;
11189;SDS011;5651;50.926;4.718;2023-03-01T15:05:35;14.65;;;11.00;;
11189;SDS011;5651;50.926;4.718;2023-03-01T15:08:01;16.52;;;11.43;;
11189;SDS011;5651;50.926;4.718;2023-03-01T15:10:30;14.55;;;10.82;;
11189;SDS011;5651;50.926;4.718;2023-03-01T15:16:07;13.77;;;10.43;;
11189;SDS011;5651;50.926;4.718;2023-03-01T15:18:34;14.82;;;10.43;;
11189;SDS011;5651;50.926;4.718;2023-03-01T15:23:53;14.88;;;10.40;;
11189;SDS011;5651;50.926;4.718;2023-03-01T15:26:23;14.75;;;10.40;;
11189;SDS011;5651;50.926;4.718;2023-03-01T15:28:52;13.60;;;10.50;;
11189;SDS011;5651;50.926;4.718;2023-03-01T15:31:33;15.00;;;10.68;;
11189;SDS011;5651;50.926;4.718;2023-03-01T15:37:01;14.75;;;9.85;;
11189;SDS011;5651;50.926;4.718;2023-03-01T15:39:41;12.38;;;9.00;;
11189;SDS011;5651;50.926;4.718;2023-03-01T15:45:08;13.63;;;10.45;;
11189;SDS011;5651;50.926;4.718;2023-03-01T15:47:46;15.20;;;9.77;;
11189;SDS011;5651;50.926;4.718;2023-03-01T15:50:26;13.43;;;10.10;;
11189;SDS011;5651;50.926;4.718;2023-03-01T15:52:54;13.30;;;9.75;;
11189;SDS011;5651;50.926;4.718;2023-03-01T15:55:24;15.55;;;9.85;;
11189;SDS011;5651;50.926;4.718;2023-03-01T15:58:00;12.55;;;9.02;;
11189;SDS011;5651;50.926;4.718;2023-03-01T16:00:32;14.50;;;9.65;;
11189;SDS011;5651;50.926;4.718;2023-03-01T16:02:58;13.77;;;9.75;;
11189;SDS011;5651;50.926;4.718;2023-03-01T16:05:25;16.30;;;9.85;;
11189;SDS011;5651;50.926;4.718;2023-03-01T16:07:53;12.80;;;9.07;;
11189;SDS011;5651;50.926;4.718;2023-03-01T16:10:19;18.95;;;12.20;;
11189;SDS011;5651;50.926;4.718;2023-03-01T16:12:46;15.15;;;10.23;;
11189;SDS011;5651;50.926;4.718;2023-03-01T16:15:17;12.80;;;9.45;;
11189;SDS011;5651;50.926;4.718;2023-03-01T16:17:45;13.32;;;9.57;;
11189;SDS011;5651;50.926;4.718;2023-03-01T16:20:11;15.30;;;9.10;;
11189;SDS011;5651;50.926;4.718;2023-03-01T16:22:37;16.02;;;10.75;;
11189;SDS011;5651;50.926;4.718;2023-03-01T16:25:03;13.00;;;10.05;;
11189;SDS011;5651;50.926;4.718;2023-03-01T16:27:29;13.65;;;9.63;;
11189;SDS011;5651;50.926;4.718;2023-03-01T16:29:55;13.55;;;9.70;;
11189;SDS011;5651;50.926;4.718;2023-03-01T16:32:20;14.55;;;11.00;;
11189;SDS011;5651;50.926;4.718;2023-03-01T16:34:46;14.68;;;10.15;;
11189;SDS011;5651;50.926;4.718;2023-03-01T16:37:14;13.27;;;9.52;;
11189;SDS011;5651;50.926;4.718;2023-03-01T16:39:41;17.75;;;10.52;;
11189;SDS011;5651;50.926;4.718;2023-03-01T16:42:07;18.55;;;10.57;;
11189;SDS011;5651;50.926;4.718;2023-03-01T16:44:33;15.45;;;10.27;;
11189;SDS011;5651;50.926;4.718;2023-03-01T16:46:58;17.48;;;11.55;;
11189;SDS011;5651;50.926;4.718;2023-03-01T16:49:24;13.73;;;9.82;;
11189;SDS011;5651;50.926;4.718;2023-03-01T16:51:50;16.23;;;11.02;;
11189;SDS011;5651;50.926;4.718;2023-03-01T16:54:15;17.85;;;12.00;;